Latest Weather Observations for Camden

IDN60801

Issued at 9:02 am EST Tuesday 30 June 2015 (issued every 30 minutes, with the page automatically refreshed every 10 minutes)

About weather observations | Map of weather stations | Latest weather observations for NSW | Other Formats
Station Details ID: 068192 Name: CAMDEN AIRPORT AWS Lat: -34.04 Lon: 150.69 Height: 73.9 m
Data from the previous 72 hours. | See also: Recent months at Camden
Date/Time
EST
Temp
°C
App
Temp
°C
Dew
Point
Rel
Hum
%
Delta-T
°C
Wind Press
QNH
hPa
Press
MSL
hPa
Rain
since 9 am
mm
Dir
 
Spd
km/h
Gust
km/h
Spd
kts
Gust
kts
30/09:00am 6.3 5.4 6.2 99 0.0 CALM 0 0 0 0 1029.6 1029.7 0.2
30/08:30am 5.3 4.2 5.2 99 0.0 CALM 0 0 0 0 1029.5 1029.5 0.2
30/08:15am 4.3 3.0 4.2 99 0.0 CALM 0 0 0 0 1029.5 1029.5 0.2
30/08:00am 3.1 1.6 3.0 99 0.0 CALM 0 0 0 0 1029.5 1029.5 0.2
30/07:37am 2.6 1.0 2.5 99 0.0 CALM 0 0 0 0 1029.3 1029.4 0.0
30/07:30am 2.1 0.4 2.0 99 0.0 CALM 0 0 0 0 1029.3 1029.4 0.0
30/07:00am 1.9 0.2 1.8 99 0.0 CALM 0 0 0 0 1029.0 1029.1 0.0
30/06:30am 2.1 0.4 2.0 99 0.0 CALM 0 0 0 0 1028.9 1029.0 0.0
30/06:00am 2.2 0.5 2.1 99 0.0 CALM 0 0 0 0 1028.7 1028.8 0.0
30/05:53am 2.1 0.4 2.0 99 0.0 CALM 0 0 0 0 1028.6 1028.7 0.0
30/05:30am 2.2 0.5 2.1 99 0.0 CALM 0 0 0 0 1028.5 1028.6 0.0
30/05:00am 2.6 1.0 2.5 99 0.0 CALM 0 0 0 0 1028.5 1028.6 0.0
30/04:30am 2.3 0.7 2.2 99 0.0 CALM 0 0 0 0 1028.5 1028.6 0.0
30/04:19am 2.7 1.1 2.6 99 0.0 CALM 0 0 0 0 1028.5 1028.6 0.0
30/04:12am 2.7 1.1 2.6 99 0.0 CALM 0 0 0 0 1028.5 1028.6 0.0
30/04:00am 2.6 1.0 2.5 99 0.0 CALM 0 0 0 0 1028.5 1028.6 0.0
30/03:33am 3.1 1.6 3.0 99 0.0 CALM 0 0 0 0 1028.5 1028.6 0.0
30/03:30am 3.3 1.8 3.2 99 0.0 CALM 0 0 0 0 1028.5 1028.6 0.0
30/03:00am 3.6 2.2 3.5 99 0.0 CALM 0 0 0 0 1028.8 1028.9 0.0
30/02:30am 3.7 2.3 3.6 99 0.0 CALM 0 0 0 0 1029.1 1029.2 0.0
30/02:00am 3.9 2.5 3.8 99 0.0 CALM 0 0 0 0 1029.2 1029.3 0.0
30/01:30am 4.1 2.8 4.0 99 0.0 CALM 0 0 0 0 1029.6 1029.6 0.0
30/01:00am 4.9 3.7 4.8 99 0.0 CALM 0 0 0 0 1029.5 1029.5 0.0
30/12:30am 4.6 3.4 4.5 99 0.0 CALM 0 0 0 0 1029.7 1029.7 0.0
30/12:00am 4.8 3.6 4.7 99 0.0 CALM 0 0 0 0 1029.9 1029.9 0.0
 
Date/Time
EST
Temp
°C
App
Temp
°C
Dew
Point
Rel
Hum
%
Delta-T
°C
Wind Press
QNH
hPa
Press
MSL
hPa
Rain
since 9 am
mm
Dir
 
Spd
km/h
Gust
km/h
Spd
kts
Gust
kts
29/11:30pm 6.5 5.7 6.4 99 0.0 CALM 0 0 0 0 1030.4 1030.4 0.0
29/11:00pm 5.7 4.7 5.6 99 0.0 CALM 0 0 0 0 1030.6 1030.7 0.0
29/10:54pm 6.7 5.9 6.6 99 0.0 CALM 0 0 0 0 1030.6 1030.7 0.0
29/10:37pm 6.6 5.8 6.5 99 0.0 CALM 0 0 0 0 1030.8 1030.9 0.0
29/10:34pm 6.5 5.7 6.4 99 0.0 CALM 0 0 0 0 1030.8 1030.9 0.0
29/10:30pm 6.5 5.7 6.4 99 0.0 CALM 0 0 0 0 1030.8 1030.9 0.0
29/10:08pm 6.5 5.7 6.4 99 0.0 CALM 0 0 0 0 1031.0 1031.1 0.0
29/10:00pm 6.3 5.4 6.2 99 0.0 CALM 0 0 0 0 1031.0 1031.1 0.0
29/09:30pm 7.0 6.3 6.9 99 0.0 CALM 0 0 0 0 1031.0 1031.1 0.0
29/09:00pm 6.8 5.9 6.2 96 0.3 CALM 0 0 0 0 1031.0 1031.1 0.0
29/08:57pm 7.0 6.2 6.4 96 0.3 CALM 0 0 0 0 1031.0 1031.1 0.0
29/08:54pm 7.2 6.4 6.6 96 0.3 CALM 0 0 0 0 1031.0 1031.1 0.0
29/08:53pm 7.3 6.5 6.7 96 0.3 CALM 0 0 0 0 1031.0 1031.1 0.0
29/08:37pm 7.6 6.9 6.9 95 0.3 CALM 0 0 0 0 1030.9 1031.0 0.0
29/08:30pm 7.9 7.2 7.1 95 0.4 CALM 0 0 0 0 1030.9 1031.0 0.0
29/08:00pm 8.2 7.6 7.3 94 0.4 CALM 0 0 0 0 1031.0 1031.1 0.0
29/07:30pm 8.4 7.8 7.3 93 0.5 CALM 0 0 0 0 1031.0 1031.1 0.0
29/07:00pm 9.1 8.6 7.7 91 0.7 CALM 0 0 0 0 1030.9 1031.0 0.0
29/06:30pm 10.0 9.5 7.8 86 1.1 CALM 0 0 0 0 1030.7 1030.8 0.0
29/06:00pm 10.8 10.5 8.6 86 1.1 CALM 0 0 0 0 1030.4 1030.4 0.0
29/05:30pm 12.1 10.3 7.8 75 2.1 NE 7 9 4 5 1030.2 1030.2 0.0
29/05:00pm 13.6 12.3 7.8 68 2.8 NNE 4 6 2 3 1029.9 1029.9 0.0
29/04:30pm 15.3 13.5 7.8 61 3.8 NNE 7 7 4 4 1029.9 1029.9 0.0
29/04:00pm 16.2 13.6 7.9 58 4.2 NNE 11 15 6 8 1029.8 1029.8 0.0
29/03:30pm 16.0 13.4 7.7 58 4.2 NE 11 15 6 8 1029.7 1029.7 0.0
29/03:00pm 17.4 15.1 7.5 52 5.0 NNE 9 15 5 8 1029.8 1029.8 0.0
29/02:30pm 17.1 15.2 7.7 54 4.8 NNE 7 9 4 5 1029.9 1029.9 0.0
29/02:00pm 16.6 13.9 7.5 55 4.5 NNE 11 15 6 8 1030.2 1030.2 0.0
29/01:30pm 16.4 14.5 7.6 56 4.4 N 7 11 4 6 1030.4 1030.4 0.0
29/01:00pm 17.1 16.5 7.5 53 4.8 CALM 0 7 0 4 1030.7 1030.8 0.0
29/12:30pm 17.1 16.6 8.0 55 4.6 CALM 0 6 0 3 1031.2 1031.3 0.0
29/12:00pm 16.6 16.2 8.3 58 4.2 CALM 0 0 0 0 1031.8 1031.9 0.0
29/11:30am 15.9 15.7 9.1 64 3.5 CALM 0 0 0 0 1032.6 1032.7 0.0
29/11:00am 14.3 13.3 8.9 70 2.7 ESE 4 9 2 5 1033.1 1033.2 0.0
29/10:30am 12.4 12.1 8.5 77 1.9 CALM 0 0 0 0 1033.6 1033.7 0.0
29/10:00am 11.4 11.2 9.1 86 1.1 CALM 0 0 0 0 1033.7 1033.8 0.0
29/09:30am 9.4 8.1 9.3 99 0.0 SE 6 7 3 4 1033.8 1033.9 0.0
29/09:00am 8.2 6.6 8.1 99 0.0 ESE 6 7 3 4 1033.7 1033.8 0.0
29/08:30am 6.7 5.9 6.6 99 0.0 CALM 0 0 0 0 1033.7 1033.8 0.0
29/08:00am 5.6 4.6 5.5 99 0.0 CALM 0 0 0 0 1033.7 1033.8 0.0
29/07:46am 5.1 4.0 5.0 99 0.0 CALM 0 0 0 0 1033.6 1033.7 0.0
29/07:30am 4.3 2.3 4.2 99 0.0 SSE 4 6 2 3 1033.4 1033.5 0.0
29/07:08am 3.9 1.4 3.8 99 0.0 SSE 6 6 3 3 1033.4 1033.5 0.0
29/07:00am 4.0 1.9 3.9 99 0.0 S 4 7 2 4 1033.4 1033.5 0.0
29/06:52am 3.9 2.5 3.8 99 0.0 CALM 0 0 0 0 1033.2 1033.3 0.0
29/06:30am 3.9 2.5 3.8 99 0.0 CALM 0 0 0 0 1033.1 1033.2 0.0
29/06:13am 4.1 2.0 4.0 99 0.0 SSE 4 9 2 5 1033.0 1033.1 0.0
29/06:00am 4.1 2.8 4.0 99 0.0 CALM 0 0 0 0 1033.0 1033.1 0.0
29/05:30am 3.0 1.5 2.9 99 0.0 CALM 0 6 0 3 1032.7 1032.8 0.0
29/05:11am 3.2 1.7 3.1 99 0.0 CALM 0 0 0 0 1032.6 1032.7 0.0
29/05:00am 3.0 1.5 2.9 99 0.0 CALM 0 0 0 0 1032.6 1032.7 0.0
29/04:59am 3.0 1.5 2.9 99 0.0 CALM 0 0 0 0 1032.5 1032.6 0.0
29/04:30am 2.8 0.9 2.7 99 0.0 N 2 7 1 4 1032.5 1032.6 0.0
29/04:00am 3.1 1.6 3.0 99 0.0 CALM 0 0 0 0 1032.5 1032.6 0.0
29/03:59am 3.1 1.6 3.0 99 0.0 CALM 0 0 0 0 1032.5 1032.6 0.0
29/03:30am 3.2 1.7 3.1 99 0.0 CALM 0 0 0 0 1032.6 1032.7 0.0
29/03:00am 2.6 1.0 2.5 99 0.0 CALM 0 0 0 0 1032.7 1032.8 0.0
29/02:53am 2.7 1.1 2.6 99 0.0 CALM 0 6 0 3 1032.6 1032.7 0.0
29/02:44am 2.9 0.2 2.8 99 0.0 S 6 7 3 4 1032.6 1032.7 0.0
29/02:30am 3.1 0.5 3.0 99 0.0 SE 6 7 3 4 1032.8 1032.9 0.0
29/02:15am 3.3 1.1 3.2 99 0.0 SSE 4 6 2 3 1032.7 1032.8 0.0
29/02:00am 3.3 1.8 3.2 99 0.0 CALM 0 0 0 0 1032.8 1032.9 0.0
29/01:45am 3.3 1.8 3.2 99 0.0 CALM 0 0 0 0 1032.8 1032.9 0.0
29/01:30am 3.7 2.3 3.6 99 0.0 CALM 0 0 0 0 1032.9 1033.0 0.0
29/01:00am 3.5 2.1 3.4 99 0.0 CALM 0 0 0 0 1033.0 1033.1 0.0
29/12:30am 3.6 2.2 3.5 99 0.0 CALM 0 0 0 0 1033.1 1033.2 0.0
29/12:00am 3.9 2.5 3.8 99 0.0 CALM 0 0 0 0 1033.3 1033.4 0.0
 
Date/Time
EST
Temp
°C
App
Temp
°C
Dew
Point
Rel
Hum
%
Delta-T
°C
Wind Press
QNH
hPa
Press
MSL
hPa
Rain
since 9 am
mm
Dir
 
Spd
km/h
Gust
km/h
Spd
kts
Gust
kts
28/11:46pm 4.2 2.9 4.1 99 0.0 CALM 0 2 0 1 1033.3 1033.4 0.0
28/11:41pm 4.4 2.8 4.3 99 0.0 S 2 6 1 3 1033.4 1033.5 0.0
28/11:30pm 4.9 3.7 4.8 99 0.0 CALM 0 6 0 3 1033.5 1033.6 0.0
28/11:00pm 4.7 3.5 4.6 99 0.0 CALM 0 0 0 0 1033.3 1033.4 0.0
28/10:30pm 5.3 4.2 5.2 99 0.0 CALM 0 0 0 0 1033.3 1033.4 0.0
28/10:23pm 5.4 4.3 5.3 99 0.0 CALM 0 0 0 0 1033.4 1033.5 0.0
28/10:00pm 5.2 4.1 5.1 99 0.0 CALM 0 0 0 0 1033.3 1033.4 0.0
28/09:30pm 5.1 3.9 4.8 98 0.1 CALM 0 0 0 0 1033.3 1033.4 0.0
28/09:28pm 5.1 3.9 4.8 98 0.1 CALM 0 0 0 0 1033.3 1033.4 0.0
28/09:15pm 6.5 4.5 6.4 99 0.0 SE 6 7 3 4 1033.4 1033.5 0.0
28/09:00pm 6.3 5.4 6.0 98 0.1 CALM 0 0 0 0 1033.2 1033.3 0.0
28/08:44pm 7.0 6.3 6.9 99 0.0 CALM 0 0 0 0 1033.1 1033.2 0.0
28/08:42pm 6.9 6.2 6.8 99 0.0 CALM 0 0 0 0 1033.1 1033.2 0.0
28/08:30pm 6.9 6.1 6.6 98 0.1 CALM 0 0 0 0 1033.0 1033.1 0.0
28/08:21pm 6.5 5.6 6.1 97 0.2 CALM 0 0 0 0 1033.0 1033.1 0.0
28/08:08pm 6.6 5.7 5.9 95 0.3 CALM 0 0 0 0 1032.9 1033.0 0.0
28/08:00pm 6.8 5.9 5.9 94 0.4 CALM 0 0 0 0 1032.8 1032.9 0.0
28/07:30pm 7.7 7.0 6.8 94 0.4 CALM 0 0 0 0 1032.6 1032.7 0.0
28/07:00pm 8.5 7.8 7.1 91 0.7 CALM 0 0 0 0 1032.3 1032.4 0.0
28/06:30pm 9.0 8.3 6.8 86 1.0 CALM 0 0 0 0 1032.0 1032.1 0.0
28/06:00pm 10.4 9.8 7.6 83 1.3 CALM 0 0 0 0 1031.5 1031.6 0.0
28/05:30pm 12.3 11.9 8.2 76 2.0 CALM 0 0 0 0 1031.2 1031.3 0.0
28/05:00pm 12.9 12.5 8.2 73 2.3 CALM 0 0 0 0 1031.1 1031.2 0.0
28/04:30pm 15.3 13.5 7.3 59 4.0 NNE 6 7 3 4 1031.1 1031.2 0.0
28/04:00pm 16.1 13.7 7.1 55 4.4 NNE 9 11 5 6 1031.1 1031.2 0.0
28/03:30pm 16.8 14.8 7.2 53 4.8 NE 7 9 4 5 1031.2 1031.3 0.0
28/03:00pm 16.9 14.4 6.4 50 5.1 NE 9 15 5 8 1031.0 1031.1 0.0
28/02:30pm 17.4 16.2 6.6 49 5.4 NW 2 7 1 4 1031.0 1031.1 0.0
28/02:00pm 17.4 15.8 6.3 48 5.4 N 4 11 2 6 1031.0 1031.1 0.0
28/01:30pm 17.0 15.4 6.2 49 5.3 WNW 4 9 2 5 1031.1 1031.2 0.0
28/01:00pm 16.5 14.8 5.8 49 5.1 SW 4 9 2 5 1031.3 1031.4 0.0
28/12:30pm 16.3 14.2 5.6 49 5.2 WNW 6 9 3 5 1031.7 1031.8 0.0
28/12:00pm 15.3 13.1 5.2 51 4.8 WSW 6 9 3 5 1032.0 1032.1 0.0
28/11:30am 14.3 12.2 5.7 56 4.1 SW 6 11 3 6 1032.5 1032.6 0.0
28/11:00am 13.5 10.4 5.7 59 3.7 SW 11 15 6 8 1033.0 1033.1 0.0
28/10:30am 12.5 9.4 5.4 62 3.3 SW 11 17 6 9 1033.3 1033.4 0.0
28/10:00am 10.6 8.3 5.8 72 2.2 S 7 9 4 5 1033.5 1033.6 0.0
28/09:30am 9.5 7.5 6.4 81 1.4 SSE 6 9 3 5 1033.4 1033.5 0.0
28/09:00am 7.8 6.1 6.1 89 0.8 SSE 4 7 2 4 1033.2 1033.3 0.2
28/08:30am 6.3 5.4 6.2 99 0.0 CALM 0 0 0 0 1032.9 1033.0 0.2
28/08:00am 3.4 2.0 3.3 99 0.0 CALM 0 0 0 0 1032.9 1033.0 0.2
28/07:30am 2.9 0.2 2.8 99 0.0 S 6 7 3 4 1032.6 1032.7 0.2
28/07:18am 2.2 0.5 2.1 99 0.0 CALM 0 0 0 0 1032.5 1032.6 0.2
28/07:02am 2.1 0.4 2.0 99 0.0 CALM 0 0 0 0 1032.3 1032.4 0.2
28/07:00am 2.0 0.3 1.9 99 0.0 CALM 0 0 0 0 1032.2 1032.3 0.2
28/06:43am 2.2 0.5 2.1 99 0.0 CALM 0 4 0 2 1032.1 1032.2 0.2
28/06:30am 1.8 -1.1 1.7 99 0.0 SSE 6 7 3 4 1032.0 1032.1 0.2
28/06:24am 1.4 -1.7 1.3 99 0.0 SSE 7 9 4 5 1031.9 1032.0 0.2
28/06:00am 1.9 -0.6 1.8 99 0.0 S 4 7 2 4 1031.6 1031.7 0.0
28/05:30am 2.1 -0.9 2.0 99 0.0 SSE 7 7 4 4 1031.4 1031.5 0.0
28/05:19am 2.3 -0.7 2.2 99 0.0 SSE 7 9 4 5 1031.3 1031.4 0.0
28/05:00am 2.4 0.8 2.3 99 0.0 CALM 0 0 0 0 1031.2 1031.3 0.0
28/04:30am 1.9 -0.9 1.8 99 0.0 SSE 6 7 3 4 1031.0 1031.1 0.0
28/04:21am 1.9 -0.9 1.8 99 0.0 S 6 7 3 4 1031.0 1031.1 0.0
28/04:00am 2.2 0.5 2.1 99 0.0 CALM 0 0 0 0 1030.9 1031.0 0.0
28/03:55am 2.2 0.5 2.1 99 0.0 CALM 0 0 0 0 1030.9 1031.0 0.0
28/03:30am 2.4 0.4 2.3 99 0.0 S 2 6 1 3 1031.0 1031.1 0.0
28/03:00am 2.5 -0.4 2.4 99 0.0 SSE 7 9 4 5 1031.0 1031.1 0.0
28/02:30am 2.9 0.2 2.8 99 0.0 SSE 6 7 3 4 1031.0 1031.1 0.0
28/02:00am 3.0 0.2 2.9 99 0.0 SSE 7 9 4 5 1031.0 1031.1 0.0
28/01:43am 2.3 -0.1 2.2 99 0.0 SSE 4 9 2 5 1031.0 1031.1 0.0
28/01:30am 2.9 1.4 2.8 99 0.0 CALM 0 0 0 0 1030.9 1031.0 0.0
28/01:13am 3.3 1.8 3.2 99 0.0 CALM 0 0 0 0 1031.0 1031.1 0.0
28/01:00am 3.5 2.1 3.4 99 0.0 CALM 0 0 0 0 1031.0 1031.1 0.0
28/12:53am 3.5 2.1 3.4 99 0.0 CALM 0 0 0 0 1031.0 1031.1 0.0
28/12:42am 3.6 2.2 3.5 99 0.0 CALM 0 0 0 0 1031.1 1031.2 0.0
28/12:30am 3.5 2.1 3.4 99 0.0 CALM 0 0 0 0 1031.1 1031.2 0.0
28/12:23am 3.7 1.9 3.6 99 0.0 SSE 2 6 1 3 1031.1 1031.2 0.0
28/12:00am 3.7 2.3 3.6 99 0.0 CALM 0 0 0 0 1031.1 1031.2 0.0
 
Date/Time
EST
Temp
°C
App
Temp
°C
Dew
Point
Rel
Hum
%
Delta-T
°C
Wind Press
QNH
hPa
Press
MSL
hPa
Rain
since 9 am
mm
Dir
 
Spd
km/h
Gust
km/h
Spd
kts
Gust
kts
27/11:30pm 4.3 3.0 4.2 99 0.0 CALM 0 0 0 0 1031.2 1031.3 0.0
27/11:00pm 4.4 3.1 4.1 98 0.1 CALM 0 0 0 0 1031.2 1031.3 0.0
27/10:30pm 5.3 4.2 5.0 98 0.1 CALM 0 0 0 0 1031.2 1031.3 0.0
27/10:29pm 5.3 4.2 5.0 98 0.1 CALM 0 0 0 0 1031.2 1031.3 0.0
27/10:28pm 5.3 4.2 5.0 98 0.1 CALM 0 0 0 0 1031.2 1031.3 0.0
27/10:19pm 5.4 4.3 5.1 98 0.1 CALM 0 0 0 0 1031.2 1031.3 0.0
27/10:01pm 6.1 5.2 6.0 99 0.0 CALM 0 0 0 0 1031.3 1031.4 0.0
27/10:00pm 6.1 5.2 6.0 99 0.0 CALM 0 0 0 0 1031.3 1031.4 0.0
27/09:49pm 6.5 5.7 6.4 99 0.0 CALM 0 0 0 0 1031.3 1031.4 0.0
27/09:38pm 6.1 5.1 5.7 97 0.2 CALM 0 0 0 0 1031.4 1031.5 0.0
27/09:30pm 6.1 5.1 5.7 97 0.2 CALM 0 0 0 0 1031.3 1031.4 0.0
27/09:25pm 6.3 5.3 5.7 96 0.3 CALM 0 0 0 0 1031.4 1031.5 0.0
27/09:05pm 6.3 5.3 5.4 94 0.4 CALM 0 0 0 0 1031.4 1031.5 0.0
27/09:00pm 6.4 5.4 5.4 93 0.4 CALM 0 0 0 0 1031.4 1031.5 0.0
27/08:30pm 7.1 6.2 5.9 92 0.5 CALM 0 0 0 0 1031.2 1031.3 0.0
27/08:00pm 7.2 5.3 5.0 86 1.0 S 4 7 2 4 1031.1 1031.2 0.0
27/07:30pm 8.1 6.1 6.2 88 0.9 S 6 7 3 4 1030.9 1031.0 0.0
27/07:00pm 9.0 7.1 6.6 85 1.1 S 6 9 3 5 1030.6 1030.7 0.0
27/06:30pm 10.1 9.5 7.5 84 1.2 CALM 0 0 0 0 1030.4 1030.4 0.0
27/06:00pm 11.3 9.5 8.0 80 1.6 E 7 11 4 6 1030.2 1030.2 0.0
27/05:30pm 11.7 11.4 8.6 81 1.5 CALM 0 0 0 0 1029.8 1029.8 0.0
27/05:00pm 15.4 14.9 7.9 61 3.7 CALM 0 0 0 0 1029.6 1029.6 0.0
27/04:30pm 17.7 17.1 7.4 51 5.2 CALM 0 0 0 0 1029.3 1029.4 0.0
27/04:00pm 18.7 17.6 5.2 41 6.5 CALM 0 0 0 0 1029.0 1029.1 0.0
27/03:30pm 18.9 17.3 4.7 39 6.9 S 2 7 1 4 1028.8 1028.9 0.0
27/03:00pm 19.4 17.7 5.8 41 6.7 WNW 4 11 2 6 1028.7 1028.8 0.0
27/02:30pm 19.3 18.2 6.8 44 6.3 WSW 2 7 1 4 1028.9 1029.0 0.0
27/02:00pm 18.7 17.5 6.5 45 6.0 NNW 2 7 1 4 1029.1 1029.2 0.0
27/01:30pm 18.4 16.5 6.6 46 5.9 NW 6 11 3 6 1029.3 1029.4 0.0
27/01:00pm 17.6 16.2 7.1 50 5.2 SSW 4 7 2 4 1029.7 1029.7 0.0
27/12:30pm 17.7 17.1 8.8 56 4.6 NNE 2 7 1 4 1030.2 1030.2 0.0
27/12:00pm 16.6 15.0 8.6 59 4.1 NW 7 9 4 5 1030.8 1030.9 0.0
27/11:30am 15.4 13.8 8.2 62 3.6 N 6 9 3 5 1031.3 1031.4 0.0
27/11:00am 13.7 12.8 7.7 67 2.9 NW 2 6 1 3 1031.9 1032.0 0.0
27/10:30am 11.7 11.1 7.4 75 2.1 CALM 0 0 0 0 1032.3 1032.4 0.0
27/10:00am 10.1 9.6 8.0 87 1.0 CALM 0 0 0 0 1032.7 1032.8 0.0
27/09:30am 8.2 7.8 8.1 99 0.0 CALM 0 0 0 0 1033.0 1033.1 0.0

Other Formats:

Comma delimited format used in spreadsheet applications
http://www.bom.gov.au/fwo/IDN60801/IDN60801.94755.axf

JavaScript Object Notation format (JSON) in row-major order
http://www.bom.gov.au/fwo/IDN60801/IDN60801.94755.json